ANZ226E NZAA-NZWR
Flight info
| Callsign | ANZ226E |
|---|---|
| Flight time | 0h 26m |
| Altitude | 17000 |
| Route | ONOD1P KOPPA H441 BILEL BILE1A |
| Aircraft | B190/M-SDFGRY/S |
Departure
| Time | 2026-04-26 08:42 |
|---|---|
| Airport | Auckland International Airport (NZAA) |
Arrival
| Time | 2026-04-26 09:09 |
|---|---|
| Airport | Whangarei Airport (NZWR) |
| Time | Latitude | Longitude | Altitude | Speed | Heading |
|---|---|---|---|---|---|
| 2026-04-26 08:23 | -37.00585 | 174.79362 | 28 ft | 0 kts | 251° |
| 2026-04-26 08:34 | -37.00585 | 174.79361 | 28 ft | 0 kts | 251° |
| 2026-04-26 08:35 | -37.00582 | 174.79373 | 28 ft | 2 kts | 251° |
| 2026-04-26 08:35 | -37.00576 | 174.79394 | 28 ft | 3 kts | 251° |
| 2026-04-26 08:36 | -37.00571 | 174.79412 | 28 ft | 0 kts | 251° |
| 2026-04-26 08:37 | -37.00574 | 174.79407 | 28 ft | 4 kts | 217° |
| 2026-04-26 08:37 | -37.00584 | 174.79407 | 28 ft | 0 kts | 153° |
| 2026-04-26 08:37 | -37.00610 | 174.79424 | 28 ft | 4 kts | 153° |
| 2026-04-26 08:38 | -37.00667 | 174.79445 | 28 ft | 14 kts | 161° |
| 2026-04-26 08:38 | -37.00676 | 174.79512 | 28 ft | 11 kts | 70° |
| 2026-04-26 08:38 | -37.00644 | 174.79626 | 28 ft | 18 kts | 71° |
| 2026-04-26 08:38 | -37.00608 | 174.79755 | 28 ft | 15 kts | 70° |
| 2026-04-26 08:39 | -37.00577 | 174.79861 | 28 ft | 12 kts | 70° |
| 2026-04-26 08:39 | -37.00571 | 174.79958 | 28 ft | 11 kts | 156° |
| 2026-04-26 08:39 | -37.00615 | 174.79979 | 28 ft | 10 kts | 154° |
| 2026-04-26 08:39 | -37.00671 | 174.80033 | 28 ft | 7 kts | 132° |
| 2026-04-26 08:40 | -37.00703 | 174.80077 | 28 ft | 6 kts | 133° |
| 2026-04-26 08:40 | -37.00736 | 174.80122 | 28 ft | 10 kts | 133° |
| 2026-04-26 08:40 | -37.00782 | 174.80142 | 28 ft | 5 kts | 244° |
| 2026-04-26 08:40 | -37.00784 | 174.80138 | 28 ft | 0 kts | 251° |
| 2026-04-26 08:42 | -37.00798 | 174.80086 | 28 ft | 24 kts | 250° |
| 2026-04-26 08:42 | -37.00962 | 174.79486 | 46 ft | 110 kts | 249° |
| 2026-04-26 08:42 | -37.01278 | 174.78469 | 484 ft | 136 kts | 246° |
| 2026-04-26 08:42 | -37.01530 | 174.77222 | 874 ft | 160 kts | 264° |
| 2026-04-26 08:43 | -37.01359 | 174.75797 | 1283 ft | 174 kts | 292° |
| 2026-04-26 08:43 | -37.00620 | 174.74512 | 1629 ft | 191 kts | 313° |
| 2026-04-26 08:43 | -36.99641 | 174.73337 | 2084 ft | 196 kts | 315° |
| 2026-04-26 08:43 | -36.98652 | 174.72178 | 2658 ft | 194 kts | 315° |
| 2026-04-26 08:44 | -36.97687 | 174.71024 | 3305 ft | 189 kts | 314° |
| 2026-04-26 08:44 | -36.96779 | 174.69841 | 3923 ft | 188 kts | 310° |
| 2026-04-26 08:44 | -36.95915 | 174.68624 | 4550 ft | 188 kts | 308° |
| 2026-04-26 08:44 | -36.95066 | 174.67411 | 5167 ft | 195 kts | 308° |
| 2026-04-26 08:45 | -36.94162 | 174.66129 | 5800 ft | 198 kts | 308° |
| 2026-04-26 08:45 | -36.93253 | 174.64854 | 6467 ft | 197 kts | 308° |
| 2026-04-26 08:45 | -36.92331 | 174.63581 | 7223 ft | 193 kts | 308° |
| 2026-04-26 08:45 | -36.91444 | 174.62361 | 7961 ft | 191 kts | 308° |
| 2026-04-26 08:46 | -36.90573 | 174.61128 | 8708 ft | 189 kts | 307° |
| 2026-04-26 08:46 | -36.89708 | 174.59901 | 9457 ft | 187 kts | 307° |
| 2026-04-26 08:46 | -36.88776 | 174.58764 | 10201 ft | 191 kts | 322° |
| 2026-04-26 08:46 | -36.87543 | 174.58127 | 10954 ft | 195 kts | 338° |
| 2026-04-26 08:47 | -36.86208 | 174.57768 | 11706 ft | 196 kts | 344° |
| 2026-04-26 08:47 | -36.84856 | 174.57522 | 12455 ft | 197 kts | 346° |
| 2026-04-26 08:47 | -36.83499 | 174.57324 | 13204 ft | 196 kts | 347° |
| 2026-04-26 08:47 | -36.82142 | 174.57150 | 13952 ft | 196 kts | 348° |
| 2026-04-26 08:48 | -36.80789 | 174.56989 | 14701 ft | 195 kts | 348° |
| 2026-04-26 08:48 | -36.79439 | 174.56836 | 15450 ft | 194 kts | 348° |
| 2026-04-26 08:48 | -36.78099 | 174.56688 | 16196 ft | 193 kts | 348° |
| 2026-04-26 08:48 | -36.76763 | 174.56544 | 16926 ft | 194 kts | 348° |
| 2026-04-26 08:49 | -36.75325 | 174.56375 | 17028 ft | 219 kts | 348° |
| 2026-04-26 08:49 | -36.73762 | 174.56189 | 17013 ft | 233 kts | 349° |
| 2026-04-26 08:49 | -36.72102 | 174.55994 | 17007 ft | 245 kts | 349° |
| 2026-04-26 08:49 | -36.70378 | 174.55796 | 17004 ft | 252 kts | 349° |
| 2026-04-26 08:50 | -36.68614 | 174.55600 | 17002 ft | 257 kts | 349° |
| 2026-04-26 08:50 | -36.66822 | 174.55404 | 17001 ft | 260 kts | 350° |
| 2026-04-26 08:50 | -36.65011 | 174.55210 | 17001 ft | 262 kts | 350° |
| 2026-04-26 08:50 | -36.63188 | 174.55018 | 17001 ft | 264 kts | 350° |
| 2026-04-26 08:51 | -36.59519 | 174.54642 | 17000 ft | 265 kts | 350° |
| 2026-04-26 08:51 | -36.57674 | 174.54457 | 17000 ft | 266 kts | 350° |
| 2026-04-26 08:51 | -36.55851 | 174.54279 | 17000 ft | 266 kts | 350° |
| 2026-04-26 08:52 | -36.53977 | 174.54102 | 17000 ft | 267 kts | 351° |
| 2026-04-26 08:52 | -36.52149 | 174.53938 | 17000 ft | 267 kts | 351° |
| 2026-04-26 08:52 | -36.50302 | 174.53735 | 17000 ft | 266 kts | 347° |
| 2026-04-26 08:52 | -36.48456 | 174.53357 | 17000 ft | 265 kts | 344° |
| 2026-04-26 08:53 | -36.46657 | 174.52891 | 17000 ft | 264 kts | 342° |
| 2026-04-26 08:53 | -36.44868 | 174.52382 | 17000 ft | 264 kts | 342° |
| 2026-04-26 08:53 | -36.43106 | 174.51862 | 17000 ft | 264 kts | 341° |
| 2026-04-26 08:53 | -36.41327 | 174.51328 | 17000 ft | 264 kts | 341° |
| 2026-04-26 08:54 | -36.39541 | 174.50790 | 17000 ft | 264 kts | 341° |
| 2026-04-26 08:54 | -36.37762 | 174.50254 | 17000 ft | 264 kts | 341° |
| 2026-04-26 08:54 | -36.35973 | 174.49716 | 16901 ft | 265 kts | 341° |
| 2026-04-26 08:54 | -36.34231 | 174.49200 | 16552 ft | 251 kts | 341° |
| 2026-04-26 08:55 | -36.32558 | 174.48714 | 16176 ft | 243 kts | 341° |
| 2026-04-26 08:55 | -36.30936 | 174.48248 | 15800 ft | 236 kts | 341° |
| 2026-04-26 08:55 | -36.29350 | 174.47794 | 15424 ft | 232 kts | 341° |
| 2026-04-26 08:55 | -36.27792 | 174.47352 | 15048 ft | 228 kts | 341° |
| 2026-04-26 08:56 | -36.26252 | 174.46923 | 14673 ft | 226 kts | 342° |
| 2026-04-26 08:56 | -36.24684 | 174.46683 | 14296 ft | 229 kts | 353° |
| 2026-04-26 08:56 | -36.23094 | 174.46793 | 13922 ft | 230 kts | 1° |
| 2026-04-26 08:56 | -36.21510 | 174.47091 | 13546 ft | 230 kts | 5° |
| 2026-04-26 08:57 | -36.19942 | 174.47491 | 13171 ft | 230 kts | 7° |
| 2026-04-26 08:57 | -36.18389 | 174.47946 | 12796 ft | 230 kts | 8° |
| 2026-04-26 08:57 | -36.16840 | 174.48435 | 12421 ft | 229 kts | 9° |
| 2026-04-26 08:57 | -36.15303 | 174.48941 | 12046 ft | 228 kts | 9° |
| 2026-04-26 08:58 | -36.13770 | 174.49458 | 11670 ft | 228 kts | 10° |
| 2026-04-26 08:58 | -36.12244 | 174.49980 | 11295 ft | 227 kts | 10° |
| 2026-04-26 08:58 | -36.10707 | 174.50510 | 10809 ft | 233 kts | 10° |
| 2026-04-26 08:58 | -36.09120 | 174.51056 | 10309 ft | 239 kts | 10° |
| 2026-04-26 08:59 | -36.07503 | 174.51615 | 9809 ft | 243 kts | 11° |
| 2026-04-26 08:59 | -36.05870 | 174.52185 | 9310 ft | 245 kts | 11° |
| 2026-04-26 08:59 | -36.04249 | 174.52762 | 8816 ft | 246 kts | 11° |
| 2026-04-26 08:59 | -36.02605 | 174.53360 | 8316 ft | 246 kts | 12° |
| 2026-04-26 09:00 | -36.00945 | 174.53770 | 7815 ft | 242 kts | 359° |
| 2026-04-26 09:00 | -35.99280 | 174.53725 | 7316 ft | 238 kts | 349° |
| 2026-04-26 09:00 | -35.97653 | 174.53429 | 6816 ft | 235 kts | 345° |
| 2026-04-26 09:00 | -35.96061 | 174.53006 | 6316 ft | 234 kts | 342° |
| 2026-04-26 09:01 | -35.94485 | 174.52521 | 5815 ft | 233 kts | 341° |
| 2026-04-26 09:01 | -35.92917 | 174.52011 | 5315 ft | 233 kts | 341° |
| 2026-04-26 09:01 | -35.91346 | 174.51499 | 4815 ft | 234 kts | 342° |
| 2026-04-26 09:01 | -35.89862 | 174.50739 | 4315 ft | 231 kts | 328° |
| 2026-04-26 09:02 | -35.88536 | 174.49628 | 3830 ft | 230 kts | 321° |
| 2026-04-26 09:02 | -35.87292 | 174.48480 | 3638 ft | 218 kts | 321° |
| 2026-04-26 09:02 | -35.86114 | 174.47370 | 3476 ft | 209 kts | 320° |
| 2026-04-26 09:02 | -35.84990 | 174.46261 | 3272 ft | 204 kts | 316° |
| 2026-04-26 09:03 | -35.84386 | 174.44790 | 3210 ft | 191 kts | 274° |
| 2026-04-26 09:03 | -35.84729 | 174.43278 | 3175 ft | 182 kts | 235° |
| 2026-04-26 09:03 | -35.85704 | 174.42370 | 3122 ft | 179 kts | 194° |
| 2026-04-26 09:03 | -35.86881 | 174.42666 | 3069 ft | 179 kts | 146° |
| 2026-04-26 09:04 | -35.87477 | 174.43945 | 3099 ft | 176 kts | 95° |
| 2026-04-26 09:04 | -35.87113 | 174.45365 | 2966 ft | 181 kts | 52° |
| 2026-04-26 09:04 | -35.86069 | 174.46199 | 2850 ft | 179 kts | 14° |
| 2026-04-26 09:04 | -35.84870 | 174.46238 | 2643 ft | 171 kts | 346° |
| 2026-04-26 09:05 | -35.83861 | 174.45620 | 2360 ft | 151 kts | 318° |
| 2026-04-26 09:05 | -35.83093 | 174.44911 | 2185 ft | 121 kts | 324° |
| 2026-04-26 09:05 | -35.82443 | 174.44369 | 1979 ft | 111 kts | 322° |
| 2026-04-26 09:05 | -35.81809 | 174.43817 | 1913 ft | 112 kts | 322° |
| 2026-04-26 09:06 | -35.81185 | 174.43285 | 1862 ft | 105 kts | 321° |
| 2026-04-26 09:06 | -35.80610 | 174.42727 | 1720 ft | 105 kts | 318° |
| 2026-04-26 09:06 | -35.80023 | 174.42193 | 1568 ft | 104 kts | 321° |
| 2026-04-26 09:06 | -35.79429 | 174.41685 | 1382 ft | 104 kts | 324° |
| 2026-04-26 09:07 | -35.78820 | 174.41202 | 1235 ft | 102 kts | 325° |
| 2026-04-26 09:07 | -35.78230 | 174.40747 | 1079 ft | 97 kts | 325° |
| 2026-04-26 09:07 | -35.77662 | 174.40313 | 863 ft | 102 kts | 323° |
| 2026-04-26 09:07 | -35.77137 | 174.39685 | 718 ft | 101 kts | 304° |
| 2026-04-26 09:08 | -35.76829 | 174.38932 | 546 ft | 101 kts | 286° |
| 2026-04-26 09:08 | -35.76711 | 174.38072 | 389 ft | 103 kts | 267° |
| 2026-04-26 09:08 | -35.76802 | 174.37233 | 199 ft | 92 kts | 260° |
| 2026-04-26 09:08 | -35.76892 | 174.36529 | 138 ft | 68 kts | 259° |
| 2026-04-26 09:09 | -35.76930 | 174.36259 | 138 ft | 8 kts | 261° |
| 2026-04-26 09:09 | -35.76944 | 174.36147 | 138 ft | 19 kts | 261° |
| 2026-04-26 09:09 | -35.76966 | 174.35969 | 138 ft | 21 kts | 261° |
| 2026-04-26 09:09 | -35.76972 | 174.35807 | 138 ft | 12 kts | 228° |
| 2026-04-26 09:10 | -35.76984 | 174.35826 | 138 ft | 4 kts | 82° |
| 2026-04-26 09:10 | -35.76977 | 174.35888 | 138 ft | 13 kts | 82° |
| 2026-04-26 09:10 | -35.76958 | 174.36045 | 138 ft | 24 kts | 81° |
| 2026-04-26 09:10 | -35.76932 | 174.36254 | 138 ft | 20 kts | 81° |
| 2026-04-26 09:11 | -35.76912 | 174.36409 | 138 ft | 19 kts | 81° |
| 2026-04-26 09:11 | -35.76866 | 174.36501 | 138 ft | 8 kts | 353° |
| 2026-04-26 09:11 | -35.76842 | 174.36497 | 138 ft | 0 kts | 351° |
| 2026-04-26 09:11 | -35.76830 | 174.36493 | 138 ft | 5 kts | 338° |
| 2026-04-26 09:12 | -35.76796 | 174.36468 | 138 ft | 5 kts | 328° |
| 2026-04-26 09:12 | -35.76772 | 174.36473 | 138 ft | 0 kts | 84° |